createdAt,value
2022-10-09T00:00:29.146Z,990.75
2022-10-09T00:01:29.157Z,990.80
2022-10-09T00:02:29.177Z,990.82
2022-10-09T00:03:29.120Z,990.74
2022-10-09T00:04:29.111Z,990.76
2022-10-09T00:05:29.200Z,990.79
2022-10-09T00:06:29.100Z,990.80
2022-10-09T00:07:29.080Z,990.82
2022-10-09T00:08:29.071Z,990.79
2022-10-09T00:09:29.066Z,990.83
2022-10-09T00:10:29.050Z,990.81
2022-10-09T00:11:29.045Z,990.85
2022-10-09T00:12:29.029Z,990.85
2022-10-09T00:13:29.014Z,990.87
2022-10-09T00:14:29.011Z,990.91
2022-10-09T00:15:29.004Z,990.85
2022-10-09T00:16:29.103Z,990.91
2022-10-09T00:17:29.072Z,990.90
2022-10-09T00:18:28.977Z,990.91
2022-10-09T00:19:28.997Z,990.90
2022-10-09T00:20:28.960Z,990.90
2022-10-09T00:21:28.962Z,990.99
2022-10-09T00:22:28.928Z,991.01
2022-10-09T00:23:28.924Z,991.01
2022-10-09T00:24:28.911Z,991.00
2022-10-09T00:25:28.899Z,991.00
2022-10-09T00:26:28.957Z,991.02
2022-10-09T00:27:28.885Z,991.03
2022-10-09T00:28:28.928Z,991.09
2022-10-09T00:29:28.864Z,991.02
2022-10-09T00:30:28.890Z,991.04
2022-10-09T00:31:28.857Z,990.98
2022-10-09T00:32:28.839Z,991.05
2022-10-09T00:33:28.820Z,991.03
2022-10-09T00:34:28.821Z,991.08
2022-10-09T00:35:28.803Z,991.08
2022-10-09T00:36:28.808Z,991.07
2022-10-09T00:37:28.783Z,991.05
2022-10-09T00:38:28.771Z,991.09
2022-10-09T00:39:28.762Z,991.10
2022-10-09T00:40:28.754Z,991.06
2022-10-09T00:41:28.758Z,991.07
2022-10-09T00:42:28.727Z,991.01
2022-10-09T00:43:28.717Z,991.03
2022-10-09T00:44:28.721Z,991.10
2022-10-09T00:45:28.700Z,991.01
2022-10-09T00:46:28.765Z,991.08
2022-10-09T00:47:28.683Z,991.06
2022-10-09T00:48:28.667Z,991.07
2022-10-09T00:49:28.657Z,991.00
2022-10-09T00:50:28.646Z,990.99
2022-10-09T00:51:28.645Z,991.03
2022-10-09T00:52:28.623Z,990.99
2022-10-09T00:53:28.616Z,991.03
2022-10-09T00:54:28.603Z,991.01
2022-10-09T00:55:28.592Z,991.02
2022-10-09T00:56:28.600Z,990.97
2022-10-09T00:57:28.575Z,991.03
2022-10-09T00:58:28.565Z,991.02
2022-10-09T00:59:28.557Z,990.99
2022-10-09T01:00:28.565Z,991.02
2022-10-09T01:01:28.587Z,991.01
2022-10-09T01:02:28.583Z,991.08
2022-10-09T01:03:28.517Z,991.08
2022-10-09T01:04:28.502Z,991.05
2022-10-09T01:05:28.495Z,991.04
2022-10-09T01:06:28.497Z,991.08
2022-10-09T01:07:28.477Z,991.06
2022-10-09T01:08:28.463Z,991.09
2022-10-09T01:09:28.454Z,991.07
2022-10-09T01:10:28.444Z,991.03
2022-10-09T01:11:28.444Z,991.00
2022-10-09T01:12:28.420Z,991.03
2022-10-09T01:13:28.435Z,991.01
2022-10-09T01:14:28.398Z,991.00
2022-10-09T01:15:28.431Z,990.98
2022-10-09T01:16:28.395Z,991.05
2022-10-09T01:17:28.369Z,990.97
2022-10-09T01:18:28.359Z,990.97
2022-10-09T01:19:28.346Z,990.96
2022-10-09T01:20:28.343Z,990.95
2022-10-09T01:21:28.337Z,991.01
2022-10-09T01:22:28.316Z,990.94
2022-10-09T01:23:28.301Z,990.96
2022-10-09T01:24:28.299Z,990.96
2022-10-09T01:25:28.285Z,990.93
2022-10-09T01:26:28.291Z,991.01
2022-10-09T01:27:28.267Z,990.95
2022-10-09T01:28:28.323Z,990.94
2022-10-09T01:29:28.246Z,991.03
2022-10-09T01:30:28.237Z,990.93
2022-10-09T01:31:28.305Z,990.94
2022-10-09T01:32:28.216Z,990.96
2022-10-09T01:33:28.213Z,990.97
2022-10-09T01:34:28.197Z,990.94
2022-10-09T01:35:28.190Z,990.94
2022-10-09T01:36:28.192Z,990.94
2022-10-09T01:37:28.170Z,990.95
2022-10-09T01:38:28.156Z,990.92
2022-10-09T01:39:28.152Z,990.89
2022-10-09T01:40:28.137Z,990.92
2022-10-09T01:41:28.138Z,990.93
2022-10-09T01:42:28.120Z,990.89
2022-10-09T01:43:28.108Z,990.94
2022-10-09T01:44:28.097Z,990.91
2022-10-09T01:45:28.089Z,990.85
2022-10-09T01:46:28.164Z,990.86
2022-10-09T01:47:28.067Z,990.90
2022-10-09T01:48:28.063Z,990.89
2022-10-09T01:49:28.044Z,990.87
2022-10-09T01:50:28.045Z,990.85
2022-10-09T01:51:28.034Z,990.87
2022-10-09T01:52:28.012Z,990.87
2022-10-09T01:53:28.003Z,990.83
2022-10-09T01:54:27.994Z,990.81
2022-10-09T01:55:27.982Z,990.82
2022-10-09T01:56:27.991Z,990.79
2022-10-09T01:57:27.964Z,990.78
2022-10-09T01:58:27.952Z,990.75
2022-10-09T01:59:27.944Z,990.66
2022-10-09T02:00:27.933Z,990.71
2022-10-09T02:01:27.979Z,990.74
2022-10-09T02:02:27.972Z,990.70
2022-10-09T02:03:27.904Z,990.75
2022-10-09T02:04:27.895Z,990.69
2022-10-09T02:05:27.895Z,990.66
2022-10-09T02:06:27.874Z,990.71
2022-10-09T02:07:27.876Z,990.78
2022-10-09T02:08:27.854Z,990.73
2022-10-09T02:09:27.852Z,990.73
2022-10-09T02:10:27.844Z,990.74
2022-10-09T02:11:59.744Z,990.64
2022-10-09T02:12:27.818Z,990.67
2022-10-09T02:13:27.803Z,990.65
2022-10-09T02:14:27.798Z,990.68
2022-10-09T02:15:27.790Z,990.70
2022-10-09T02:16:27.781Z,990.75
2022-10-09T02:17:27.777Z,990.77
2022-10-09T02:18:27.749Z,990.75
2022-10-09T02:19:27.749Z,990.74
2022-10-09T02:20:27.741Z,990.76
2022-10-09T02:21:27.729Z,990.78
2022-10-09T02:22:27.724Z,990.71
2022-10-09T02:23:27.706Z,990.74
2022-10-09T02:24:27.697Z,990.68
2022-10-09T02:25:27.686Z,990.71
2022-10-09T02:26:27.673Z,990.68
2022-10-09T02:27:27.672Z,990.72
2022-10-09T02:28:27.694Z,990.68
2022-10-09T02:29:27.642Z,990.79
2022-10-09T02:30:27.635Z,990.73
2022-10-09T02:31:27.715Z,990.81
2022-10-09T02:32:27.628Z,990.80
2022-10-09T02:33:27.608Z,990.83
2022-10-09T02:34:27.600Z,990.77
2022-10-09T02:35:27.586Z,990.83
2022-10-09T02:36:27.576Z,990.87
2022-10-09T02:37:27.572Z,990.83
2022-10-09T02:38:27.553Z,990.80
2022-10-09T02:39:27.546Z,990.79
2022-10-09T02:40:27.552Z,990.84
2022-10-09T02:41:27.536Z,990.81
2022-10-09T02:42:27.521Z,990.81
2022-10-09T02:43:27.510Z,990.77
2022-10-09T02:44:27.503Z,990.79
2022-10-09T02:45:27.488Z,990.78
2022-10-09T02:46:27.522Z,990.80
2022-10-09T02:47:27.465Z,990.87
2022-10-09T02:48:27.458Z,990.79
2022-10-09T02:49:27.446Z,990.82
2022-10-09T02:50:27.437Z,990.83
2022-10-09T02:51:27.434Z,990.80
2022-10-09T02:52:27.426Z,990.84
2022-10-09T02:53:27.412Z,990.80
2022-10-09T02:54:27.397Z,990.88
2022-10-09T02:55:27.388Z,990.83
2022-10-09T02:56:27.392Z,990.80
2022-10-09T02:57:27.370Z,990.80
2022-10-09T02:58:27.360Z,990.80
2022-10-09T02:59:27.350Z,990.74
2022-10-09T03:00:27.357Z,990.77
2022-10-09T03:01:27.384Z,990.72
2022-10-09T03:02:27.454Z,990.79
2022-10-09T03:03:27.312Z,990.78
2022-10-09T03:04:27.294Z,990.78
2022-10-09T03:05:27.292Z,990.78
2022-10-09T03:06:27.291Z,990.81
2022-10-09T03:07:27.270Z,990.80
2022-10-09T03:08:27.427Z,990.89
2022-10-09T03:09:32.778Z,990.79
2022-10-09T03:10:29.234Z,990.82
2022-10-09T03:11:27.246Z,990.75
2022-10-09T03:12:27.213Z,990.83
2022-10-09T03:13:27.210Z,990.81
2022-10-09T03:14:27.201Z,990.83
2022-10-09T03:15:27.190Z,990.82
2022-10-09T03:16:27.258Z,990.81
2022-10-09T03:17:27.175Z,990.77
2022-10-09T03:18:27.154Z,990.81
2022-10-09T03:19:27.149Z,990.81
2022-10-09T03:20:27.137Z,990.76
2022-10-09T03:21:27.136Z,990.84
2022-10-09T03:22:27.115Z,990.79
2022-10-09T03:23:27.105Z,990.84
2022-10-09T03:24:27.094Z,990.82
2022-10-09T03:25:27.087Z,990.88
2022-10-09T03:26:27.096Z,990.82
2022-10-09T03:27:27.071Z,990.81
2022-10-09T03:28:27.101Z,990.80
2022-10-09T03:29:27.045Z,990.79
2022-10-09T03:30:27.038Z,990.79
2022-10-09T03:31:50.558Z,990.81
2022-10-09T03:32:29.061Z,990.79
2022-10-09T03:33:27.008Z,990.76
2022-10-09T03:34:26.998Z,990.81
2022-10-09T03:35:26.985Z,990.78
2022-10-09T03:36:26.993Z,990.89
2022-10-09T03:37:26.973Z,990.86
2022-10-09T03:38:26.954Z,990.78
2022-10-09T03:39:26.957Z,990.80
2022-10-09T03:40:27.045Z,990.80
2022-10-09T03:41:27.059Z,990.84
2022-10-09T03:42:26.921Z,990.89
2022-10-09T03:43:26.908Z,990.90
2022-10-09T03:44:26.893Z,990.89
2022-10-09T03:45:26.896Z,990.89
2022-10-09T03:46:26.923Z,990.92
2022-10-09T03:47:26.852Z,990.94
2022-10-09T03:48:26.850Z,990.87
2022-10-09T03:49:26.835Z,990.90
2022-10-09T03:50:26.833Z,990.91
2022-10-09T03:51:26.819Z,990.86
2022-10-09T03:52:26.828Z,990.93
2022-10-09T03:53:26.794Z,990.95
2022-10-09T03:54:26.778Z,990.90
2022-10-09T03:55:26.775Z,990.91
2022-10-09T03:56:26.753Z,990.96
2022-10-09T03:57:27.816Z,990.93
2022-10-09T03:58:26.749Z,990.93
2022-10-09T03:59:26.734Z,990.98
2022-10-09T04:00:26.724Z,991.00
2022-10-09T04:01:26.771Z,991.06
2022-10-09T04:02:26.787Z,990.97
2022-10-09T04:03:26.695Z,991.04
2022-10-09T04:04:26.682Z,991.02
2022-10-09T04:05:26.673Z,991.04
2022-10-09T04:06:26.662Z,991.06
2022-10-09T04:07:26.679Z,991.05
2022-10-09T04:08:26.639Z,991.05
2022-10-09T04:09:26.631Z,991.09
2022-10-09T04:10:26.619Z,991.11
2022-10-09T04:11:26.613Z,991.07
2022-10-09T04:12:26.619Z,991.06
2022-10-09T04:13:26.595Z,991.08
2022-10-09T04:14:26.583Z,991.11
2022-10-09T04:15:26.564Z,991.07
2022-10-09T04:16:26.643Z,991.07
2022-10-09T04:17:26.556Z,991.10
2022-10-09T04:18:26.532Z,991.05
2022-10-09T04:19:26.525Z,991.08
2022-10-09T04:20:26.511Z,991.08
2022-10-09T04:21:27.524Z,991.06
2022-10-09T04:22:26.493Z,990.99
2022-10-09T04:23:26.493Z,991.04
2022-10-09T04:24:26.475Z,991.09
2022-10-09T04:25:26.474Z,991.09
2022-10-09T04:26:26.457Z,991.10
2022-10-09T04:27:26.456Z,991.11
2022-10-09T04:28:26.500Z,991.06
2022-10-09T04:29:26.426Z,991.10
2022-10-09T04:30:26.416Z,990.96
2022-10-09T04:31:26.466Z,991.02
2022-10-09T04:32:26.408Z,991.03
2022-10-09T04:33:26.390Z,991.10
2022-10-09T04:34:26.380Z,991.04
2022-10-09T04:35:26.368Z,991.05
2022-10-09T04:36:26.354Z,991.00
2022-10-09T04:37:26.357Z,991.00
2022-10-09T04:38:26.328Z,991.01
2022-10-09T04:39:27.327Z,990.98
2022-10-09T04:40:26.314Z,991.01
2022-10-09T04:41:26.304Z,990.99
2022-10-09T04:42:26.313Z,990.97
2022-10-09T04:43:26.284Z,991.02
2022-10-09T04:44:26.274Z,990.96
2022-10-09T04:45:26.343Z,990.90
2022-10-09T04:46:26.263Z,990.97
2022-10-09T04:47:26.244Z,990.96
2022-10-09T04:48:26.233Z,990.93
2022-10-09T04:49:26.226Z,990.93
2022-10-09T04:50:26.213Z,990.91
2022-10-09T04:51:26.211Z,990.86
2022-10-09T04:52:26.193Z,990.86
2022-10-09T04:53:26.178Z,990.84
2022-10-09T04:54:26.170Z,990.83
2022-10-09T04:55:26.162Z,990.88
2022-10-09T04:56:26.159Z,990.86
2022-10-09T04:57:26.144Z,990.84
2022-10-09T04:58:26.127Z,990.85
2022-10-09T04:59:26.122Z,990.91
2022-10-09T05:00:26.107Z,990.92
2022-10-09T05:01:26.194Z,990.91
2022-10-09T05:02:26.188Z,990.86
2022-10-09T05:03:26.083Z,990.86
2022-10-09T05:04:26.069Z,990.89
2022-10-09T05:05:26.059Z,990.90
2022-10-09T05:06:26.057Z,990.92
2022-10-09T05:07:26.038Z,990.86
2022-10-09T05:08:26.026Z,990.85
2022-10-09T05:09:26.015Z,990.85
2022-10-09T05:10:26.003Z,990.87
2022-10-09T05:11:26.004Z,990.88
2022-10-09T05:12:25.987Z,990.87
2022-10-09T05:13:25.973Z,990.85
2022-10-09T05:14:25.963Z,990.89
2022-10-09T05:15:25.951Z,990.78
2022-10-09T05:16:25.982Z,990.91
2022-10-09T05:17:26.018Z,990.87
2022-10-09T05:18:25.924Z,990.84
2022-10-09T05:19:25.914Z,990.89
2022-10-09T05:20:25.907Z,990.89
2022-10-09T05:21:25.905Z,990.90
2022-10-09T05:22:25.883Z,990.91
2022-10-09T05:23:25.871Z,990.90
2022-10-09T05:24:25.872Z,990.86
2022-10-09T05:25:25.854Z,990.83
2022-10-09T05:26:25.855Z,990.83
2022-10-09T05:27:25.841Z,990.79
2022-10-09T05:28:25.926Z,990.85
2022-10-09T05:29:25.816Z,990.79
2022-10-09T05:30:25.808Z,990.84
2022-10-09T05:31:25.902Z,990.85
2022-10-09T05:32:25.792Z,990.85
2022-10-09T05:33:25.784Z,990.84
2022-10-09T05:34:25.774Z,990.84
2022-10-09T05:35:25.767Z,990.86
2022-10-09T05:36:25.763Z,990.86
2022-10-09T05:37:25.748Z,990.88
2022-10-09T05:38:25.739Z,990.92
2022-10-09T05:39:25.726Z,990.95
2022-10-09T05:40:29.050Z,990.98
2022-10-09T05:41:26.718Z,990.92
2022-10-09T05:42:25.699Z,990.96
2022-10-09T05:43:25.690Z,990.96
2022-10-09T05:44:25.682Z,990.96
2022-10-09T05:45:25.668Z,990.86
2022-10-09T05:46:25.669Z,990.86
2022-10-09T05:47:25.653Z,990.93
2022-10-09T05:48:25.640Z,990.89
2022-10-09T05:49:25.633Z,990.93
2022-10-09T05:50:25.624Z,990.94
2022-10-09T05:51:25.619Z,990.91
2022-10-09T05:52:25.629Z,990.92
2022-10-09T05:53:25.588Z,990.88
2022-10-09T05:54:25.585Z,990.92
2022-10-09T05:55:25.579Z,990.90
2022-10-09T05:56:25.567Z,990.89
2022-10-09T05:57:25.547Z,990.92
2022-10-09T05:58:25.541Z,990.91
2022-10-09T05:59:25.532Z,990.91
2022-10-09T06:00:25.529Z,990.88
2022-10-09T06:01:25.593Z,990.85
2022-10-09T06:02:25.600Z,990.87
2022-10-09T06:03:25.492Z,990.91
2022-10-09T06:04:25.482Z,990.92
2022-10-09T06:05:25.478Z,990.91
2022-10-09T06:06:25.472Z,990.86
2022-10-09T06:07:25.453Z,990.89
2022-10-09T06:08:25.440Z,990.93
2022-10-09T06:09:25.449Z,990.88
2022-10-09T06:10:28.020Z,990.93
2022-10-09T06:11:26.456Z,990.90
2022-10-09T06:12:25.407Z,990.94
2022-10-09T06:13:25.403Z,990.92
2022-10-09T06:14:25.386Z,990.96
2022-10-09T06:15:25.376Z,990.87
2022-10-09T06:16:25.462Z,990.98
2022-10-09T06:17:25.360Z,990.93
2022-10-09T06:18:25.347Z,990.95
2022-10-09T06:19:25.345Z,990.90
2022-10-09T06:20:25.328Z,990.94
2022-10-09T06:21:25.331Z,990.96
2022-10-09T06:22:25.307Z,990.85
2022-10-09T06:23:25.296Z,990.93
2022-10-09T06:24:28.704Z,990.95
2022-10-09T06:25:26.272Z,990.87
2022-10-09T06:26:25.272Z,990.94
2022-10-09T06:27:25.257Z,990.84
2022-10-09T06:28:25.295Z,990.86
2022-10-09T06:29:25.245Z,990.91
2022-10-09T06:30:25.224Z,990.90
2022-10-09T06:31:25.273Z,990.86
2022-10-09T06:32:25.203Z,990.92
2022-10-09T06:33:25.226Z,990.88
2022-10-09T06:34:25.186Z,990.96
2022-10-09T06:35:25.174Z,990.91
2022-10-09T06:36:25.175Z,991.00
2022-10-09T06:37:25.155Z,990.96
2022-10-09T06:38:25.144Z,990.93
2022-10-09T06:39:25.136Z,990.94
2022-10-09T06:40:25.125Z,990.97
2022-10-09T06:41:25.150Z,990.98
2022-10-09T06:42:25.102Z,991.00
2022-10-09T06:43:25.092Z,990.93
2022-10-09T06:44:25.084Z,990.91
2022-10-09T06:45:25.086Z,990.93
2022-10-09T06:46:25.138Z,991.04
2022-10-09T06:47:25.055Z,990.93
2022-10-09T06:48:25.042Z,991.00
2022-10-09T06:49:25.039Z,990.97
2022-10-09T06:50:25.020Z,990.98
2022-10-09T06:51:25.023Z,991.04
2022-10-09T06:52:25.003Z,991.04
2022-10-09T06:53:24.990Z,991.08
2022-10-09T06:54:24.982Z,991.05
2022-10-09T06:55:28.601Z,991.06
2022-10-09T06:56:25.971Z,990.98
2022-10-09T06:57:24.951Z,991.07
2022-10-09T06:58:24.943Z,991.11
2022-10-09T06:59:24.926Z,991.11
2022-10-09T07:00:24.921Z,991.04
2022-10-09T07:01:24.982Z,991.07
2022-10-09T07:02:24.937Z,991.10
2022-10-09T07:03:24.894Z,991.05
2022-10-09T07:04:24.882Z,991.10
2022-10-09T07:05:24.878Z,991.15
2022-10-09T07:06:24.870Z,991.12
2022-10-09T07:07:24.879Z,991.16
2022-10-09T07:08:24.842Z,991.13
2022-10-09T07:09:24.828Z,991.10
2022-10-09T07:10:25.411Z,991.12
2022-10-09T07:11:25.818Z,991.14
2022-10-09T07:12:24.804Z,991.14
2022-10-09T07:13:24.791Z,991.14
2022-10-09T07:14:24.778Z,991.14
2022-10-09T07:15:24.781Z,991.13
2022-10-09T07:16:24.833Z,991.12
2022-10-09T07:17:25.747Z,991.18
2022-10-09T07:18:24.733Z,991.18
2022-10-09T07:19:24.727Z,991.16
2022-10-09T07:20:24.716Z,991.16
2022-10-09T07:21:24.712Z,991.17
2022-10-09T07:22:26.965Z,991.21
2022-10-09T07:23:25.690Z,991.17
2022-10-09T07:24:24.678Z,991.21
2022-10-09T07:25:24.671Z,991.26
2022-10-09T07:26:24.669Z,991.18
2022-10-09T07:27:24.652Z,991.16
2022-10-09T07:28:24.722Z,991.23
2022-10-09T07:29:24.622Z,991.22
2022-10-09T07:30:24.620Z,991.21
2022-10-09T07:31:24.688Z,991.23
2022-10-09T07:32:24.599Z,991.17
2022-10-09T07:33:24.584Z,991.22
2022-10-09T07:34:24.574Z,991.24
2022-10-09T07:35:24.563Z,991.20
2022-10-09T07:36:24.566Z,991.21
2022-10-09T07:37:24.548Z,991.21
2022-10-09T07:38:24.535Z,991.23
2022-10-09T07:39:24.523Z,991.21
2022-10-09T07:40:24.514Z,991.24
2022-10-09T07:41:24.514Z,991.19
2022-10-09T07:42:24.495Z,991.25
2022-10-09T07:43:24.478Z,991.19
2022-10-09T07:44:24.476Z,991.27
2022-10-09T07:45:24.467Z,991.22
2022-10-09T07:46:24.515Z,991.19
2022-10-09T07:47:24.455Z,991.22
2022-10-09T07:48:24.430Z,991.25
2022-10-09T07:49:24.418Z,991.23
2022-10-09T07:50:24.405Z,991.22
2022-10-09T07:51:24.396Z,991.28
2022-10-09T07:52:24.398Z,991.22
2022-10-09T07:53:24.377Z,991.17
2022-10-09T07:54:24.361Z,991.25
2022-10-09T07:55:24.350Z,991.16
2022-10-09T07:56:24.340Z,991.04
2022-10-09T07:57:24.338Z,991.09
2022-10-09T07:58:24.321Z,991.08
2022-10-09T07:59:24.307Z,991.07
2022-10-09T08:00:24.343Z,991.07
2022-10-09T08:01:24.315Z,991.06
2022-10-09T08:02:24.339Z,991.06
2022-10-09T08:03:24.267Z,990.97
2022-10-09T08:04:24.258Z,990.96
2022-10-09T08:05:24.244Z,990.96
2022-10-09T08:06:24.236Z,991.04
2022-10-09T08:07:24.238Z,991.02
2022-10-09T08:08:24.214Z,990.94
2022-10-09T08:09:24.211Z,991.01
2022-10-09T08:10:24.225Z,990.97
2022-10-09T08:11:24.189Z,990.97
2022-10-09T08:12:24.189Z,991.00
2022-10-09T08:13:24.161Z,991.00
2022-10-09T08:14:24.152Z,990.96
2022-10-09T08:15:24.145Z,991.01
2022-10-09T08:16:24.133Z,990.88
2022-10-09T08:17:24.135Z,991.02
2022-10-09T08:18:24.109Z,990.96
2022-10-09T08:19:24.101Z,991.01
2022-10-09T08:20:24.168Z,991.03
2022-10-09T08:21:24.077Z,990.97
2022-10-09T08:22:24.084Z,990.94
2022-10-09T08:23:24.074Z,990.90
2022-10-09T08:24:24.047Z,991.00
2022-10-09T08:25:24.037Z,990.89
2022-10-09T08:26:24.029Z,990.90
2022-10-09T08:27:24.019Z,990.94
2022-10-09T08:28:25.068Z,990.98
2022-10-09T08:29:24.004Z,990.94
2022-10-09T08:30:24.024Z,990.98
2022-10-09T08:31:24.048Z,990.87
2022-10-09T08:32:23.978Z,990.87
2022-10-09T08:33:23.960Z,990.81
2022-10-09T08:34:23.948Z,990.88
2022-10-09T08:35:23.941Z,990.84
2022-10-09T08:36:23.939Z,990.83
2022-10-09T08:37:23.919Z,990.90
2022-10-09T08:38:46.236Z,990.88
2022-10-09T08:39:25.899Z,990.90
2022-10-09T08:40:23.883Z,990.91
2022-10-09T08:41:23.895Z,990.87
2022-10-09T08:42:23.859Z,990.96
2022-10-09T08:43:23.854Z,990.89
2022-10-09T08:44:23.846Z,990.89
2022-10-09T08:45:23.832Z,990.86
2022-10-09T08:46:23.865Z,990.91
2022-10-09T08:47:23.824Z,990.87
2022-10-09T08:48:23.799Z,990.88
2022-10-09T08:49:23.803Z,990.91
2022-10-09T08:50:23.784Z,990.85
2022-10-09T08:51:23.783Z,990.88
2022-10-09T08:52:23.761Z,990.85
2022-10-09T08:53:23.756Z,990.83
2022-10-09T08:54:23.731Z,990.84
2022-10-09T08:55:24.724Z,990.81
2022-10-09T08:56:23.734Z,990.77
2022-10-09T08:57:23.704Z,990.79
2022-10-09T08:58:23.714Z,990.75
2022-10-09T08:59:23.684Z,990.75
2022-10-09T09:00:23.672Z,990.77
2022-10-09T09:01:23.740Z,990.75
2022-10-09T09:02:23.693Z,990.72
2022-10-09T09:03:23.644Z,990.69
2022-10-09T09:04:23.632Z,990.70
2022-10-09T09:05:23.622Z,990.63
2022-10-09T09:06:23.632Z,990.53
2022-10-09T09:07:23.601Z,990.56
2022-10-09T09:08:23.596Z,990.65
2022-10-09T09:09:23.578Z,990.64
2022-10-09T09:10:23.577Z,990.58
2022-10-09T09:11:23.567Z,990.58
2022-10-09T09:12:23.549Z,990.65
2022-10-09T09:13:23.543Z,990.63
2022-10-09T09:14:23.536Z,990.48
2022-10-09T09:15:23.517Z,990.49
2022-10-09T09:16:23.595Z,990.45
2022-10-09T09:17:23.498Z,990.46
2022-10-09T09:18:23.490Z,990.53
2022-10-09T09:19:23.483Z,990.49
2022-10-09T09:20:23.467Z,990.50
2022-10-09T09:21:23.457Z,990.49
2022-10-09T09:22:23.457Z,990.46
2022-10-09T09:23:23.433Z,990.44
2022-10-09T09:24:23.425Z,990.52
2022-10-09T09:25:23.414Z,990.53
2022-10-09T09:26:23.416Z,990.50
2022-10-09T09:27:23.404Z,990.45
2022-10-09T09:28:23.443Z,990.44
2022-10-09T09:29:23.391Z,990.52
2022-10-09T09:30:23.365Z,990.46
2022-10-09T09:31:23.396Z,990.44
2022-10-09T09:32:23.354Z,990.53
2022-10-09T09:33:23.329Z,990.47
2022-10-09T09:34:23.325Z,990.50
2022-10-09T09:35:23.314Z,990.54
2022-10-09T09:36:23.308Z,990.56
2022-10-09T09:37:23.302Z,990.51
2022-10-09T09:38:23.279Z,990.48
2022-10-09T09:40:44.348Z,990.53
2022-10-09T09:41:25.262Z,990.48
2022-10-09T09:42:23.240Z,990.47
2022-10-09T09:43:23.218Z,990.48
2022-10-09T09:44:24.214Z,990.43
2022-10-09T09:45:23.208Z,990.46
2022-10-09T09:46:23.267Z,990.42
2022-10-09T09:47:23.197Z,990.45
2022-10-09T09:48:23.218Z,990.37
2022-10-09T09:49:23.157Z,990.37
2022-10-09T09:50:45.987Z,990.34
2022-10-09T09:51:29.375Z,990.35
2022-10-09T09:52:24.144Z,990.45
2022-10-09T09:53:23.119Z,990.31
2022-10-09T09:54:23.110Z,990.32
2022-10-09T09:55:23.100Z,990.38
2022-10-09T09:56:23.094Z,990.26
2022-10-09T09:57:23.095Z,990.30
2022-10-09T09:58:23.072Z,990.33
2022-10-09T09:59:23.064Z,990.34
2022-10-09T10:00:23.053Z,990.34
2022-10-09T10:01:23.089Z,990.31
2022-10-09T10:02:24.176Z,990.33
2022-10-09T10:03:23.022Z,990.35
2022-10-09T10:04:23.020Z,990.24
2022-10-09T10:05:23.002Z,990.42
2022-10-09T10:06:22.995Z,990.32
2022-10-09T10:07:23.057Z,990.29
2022-10-09T10:08:22.975Z,990.27
2022-10-09T10:09:22.964Z,990.30
2022-10-09T10:10:25.593Z,990.29
2022-10-09T10:11:23.944Z,990.30
2022-10-09T10:12:23.061Z,990.24
2022-10-09T10:13:22.914Z,990.26
2022-10-09T10:14:23.908Z,990.27
2022-10-09T10:15:22.901Z,990.27
2022-10-09T10:16:22.964Z,990.27
2022-10-09T10:17:22.898Z,990.25
2022-10-09T10:18:22.874Z,990.20
2022-10-09T10:19:22.851Z,990.20
2022-10-09T10:20:23.849Z,990.18
2022-10-09T10:21:22.840Z,990.22
2022-10-09T10:22:22.844Z,990.18
2022-10-09T10:23:22.820Z,990.14
2022-10-09T10:24:22.825Z,990.13
2022-10-09T10:25:22.804Z,990.20
2022-10-09T10:26:22.791Z,990.16
2022-10-09T10:27:22.795Z,990.13
2022-10-09T10:28:22.801Z,990.10
2022-10-09T10:29:22.760Z,990.07
2022-10-09T10:30:22.751Z,990.04
2022-10-09T10:31:22.772Z,990.06
2022-10-09T10:32:22.741Z,990.05
2022-10-09T10:33:22.725Z,990.03
2022-10-09T10:34:22.711Z,990.03
2022-10-09T10:35:22.701Z,990.05
2022-10-09T10:36:22.689Z,989.98
2022-10-09T10:37:22.688Z,989.96
2022-10-09T10:38:22.671Z,989.93
2022-10-09T10:39:22.659Z,989.98
2022-10-09T10:40:22.642Z,989.93
2022-10-09T10:41:22.634Z,989.93
2022-10-09T10:42:22.632Z,989.89
2022-10-09T10:43:22.629Z,989.87
2022-10-09T10:44:22.602Z,989.89
2022-10-09T10:45:22.592Z,989.90
2022-10-09T10:46:22.602Z,989.85
2022-10-09T10:47:22.591Z,989.86
2022-10-09T10:48:22.562Z,989.78
2022-10-09T10:49:22.548Z,989.83
2022-10-09T10:50:22.538Z,989.82
2022-10-09T10:51:22.529Z,989.79
2022-10-09T10:52:22.531Z,989.72
2022-10-09T10:53:22.508Z,989.79
2022-10-09T10:54:22.502Z,989.72
2022-10-09T10:55:22.491Z,989.77
2022-10-09T10:56:22.483Z,989.70
2022-10-09T10:57:22.489Z,989.69
2022-10-09T10:58:22.465Z,989.69
2022-10-09T10:59:22.531Z,989.70
2022-10-09T11:00:22.441Z,989.66
2022-10-09T11:01:22.535Z,989.70
2022-10-09T11:02:22.433Z,989.67
2022-10-09T11:03:22.481Z,989.64
2022-10-09T11:04:22.407Z,989.58
2022-10-09T11:05:22.397Z,989.58
2022-10-09T11:06:22.383Z,989.62
2022-10-09T11:07:22.382Z,989.59
2022-10-09T11:08:22.370Z,989.54
2022-10-09T11:09:22.351Z,989.53
2022-10-09T11:10:22.339Z,989.52
2022-10-09T11:11:22.340Z,989.47
2022-10-09T11:12:43.317Z,989.45
2022-10-09T11:13:24.309Z,989.44
2022-10-09T11:14:22.308Z,989.41
2022-10-09T11:15:22.296Z,989.42
2022-10-09T11:16:22.332Z,989.44
2022-10-09T11:17:22.282Z,989.37
2022-10-09T11:18:22.264Z,989.42
2022-10-09T11:19:22.247Z,989.33
2022-10-09T11:20:22.238Z,989.32
2022-10-09T11:21:22.245Z,989.39
2022-10-09T11:22:22.220Z,989.32
2022-10-09T11:23:22.206Z,989.29
2022-10-09T11:24:22.200Z,989.31
2022-10-09T11:25:22.189Z,989.33
2022-10-09T11:26:22.186Z,989.27
2022-10-09T11:27:22.165Z,989.20
2022-10-09T11:28:22.223Z,989.13
2022-10-09T11:29:22.145Z,989.15
2022-10-09T11:30:22.135Z,989.13
2022-10-09T11:31:22.289Z,989.13
2022-10-09T11:32:22.112Z,989.18
2022-10-09T11:33:22.115Z,989.12
2022-10-09T11:34:22.096Z,989.14
2022-10-09T11:35:22.087Z,989.09
2022-10-09T11:36:22.096Z,989.16
2022-10-09T11:37:22.062Z,989.08
2022-10-09T11:38:23.064Z,989.14
2022-10-09T11:39:22.049Z,989.13
2022-10-09T11:40:22.036Z,989.08
2022-10-09T11:41:22.030Z,989.07
2022-10-09T11:42:22.071Z,989.03
2022-10-09T11:43:22.004Z,989.03
2022-10-09T11:44:22.001Z,988.97
2022-10-09T11:45:21.985Z,989.02
2022-10-09T11:46:21.975Z,988.94
2022-10-09T11:47:21.977Z,988.98
2022-10-09T11:48:21.955Z,988.97
2022-10-09T11:49:21.948Z,988.88
2022-10-09T11:50:21.937Z,988.87
2022-10-09T11:51:21.934Z,988.87
2022-10-09T11:52:21.931Z,988.86
2022-10-09T11:53:21.904Z,988.82
2022-10-09T11:54:21.893Z,988.87
2022-10-09T11:55:21.882Z,988.80
2022-10-09T11:56:21.881Z,988.84
2022-10-09T11:57:21.874Z,988.84
2022-10-09T11:58:21.851Z,988.87
2022-10-09T11:59:21.846Z,988.76
2022-10-09T12:00:21.842Z,988.78
2022-10-09T12:01:21.923Z,988.77
2022-10-09T12:02:21.872Z,988.67
2022-10-09T12:03:21.805Z,988.73
2022-10-09T12:04:37.424Z,988.65
2022-10-09T12:05:23.780Z,988.62
2022-10-09T12:06:21.770Z,988.62
2022-10-09T12:07:21.771Z,988.63
2022-10-09T12:08:21.748Z,988.57
2022-10-09T12:09:21.743Z,988.57
2022-10-09T12:10:21.727Z,988.47
2022-10-09T12:11:21.716Z,988.47
2022-10-09T12:12:21.888Z,988.43
2022-10-09T12:13:21.700Z,988.45
2022-10-09T12:14:21.691Z,988.37
2022-10-09T12:15:21.687Z,988.37
2022-10-09T12:16:21.710Z,988.31
2022-10-09T12:17:21.671Z,988.30
2022-10-09T12:18:21.650Z,988.26
2022-10-09T12:19:21.646Z,988.18
2022-10-09T12:20:21.644Z,988.23
2022-10-09T12:21:21.623Z,988.17
2022-10-09T12:22:21.626Z,988.16
2022-10-09T12:23:26.837Z,988.12
2022-10-09T12:24:23.602Z,988.14
2022-10-09T12:25:21.572Z,988.18
2022-10-09T12:26:22.594Z,988.14
2022-10-09T12:27:21.573Z,988.12
2022-10-09T12:28:21.671Z,988.10
2022-10-09T12:29:21.550Z,988.08